sensor_id;sensor_type;location;lat;lon;timestamp;P1;durP1;ratioP1;P2;durP2;ratioP2
50821;SDS011;36794;51.212;6.980;2022-10-31T00:00:41;15.10;;;5.13;;
50821;SDS011;36794;51.212;6.980;2022-10-31T00:03:07;17.87;;;5.40;;
50821;SDS011;36794;51.212;6.980;2022-10-31T00:05:33;17.33;;;5.23;;
50821;SDS011;36794;51.212;6.980;2022-10-31T00:07:59;14.40;;;5.17;;
50821;SDS011;36794;51.212;6.980;2022-10-31T00:10:25;17.67;;;5.90;;
50821;SDS011;36794;51.212;6.980;2022-10-31T00:12:51;13.17;;;5.03;;
50821;SDS011;36794;51.212;6.980;2022-10-31T00:15:17;11.93;;;5.47;;
50821;SDS011;36794;51.212;6.980;2022-10-31T00:17:43;18.13;;;5.37;;
50821;SDS011;36794;51.212;6.980;2022-10-31T00:20:09;13.83;;;5.57;;
50821;SDS011;36794;51.212;6.980;2022-10-31T00:22:35;14.53;;;4.87;;
50821;SDS011;36794;51.212;6.980;2022-10-31T00:25:01;12.87;;;5.37;;
50821;SDS011;36794;51.212;6.980;2022-10-31T00:27:27;10.80;;;4.40;;
50821;SDS011;36794;51.212;6.980;2022-10-31T00:29:53;18.13;;;5.77;;
50821;SDS011;36794;51.212;6.980;2022-10-31T00:32:19;12.07;;;5.00;;
50821;SDS011;36794;51.212;6.980;2022-10-31T00:34:45;12.03;;;5.40;;
50821;SDS011;36794;51.212;6.980;2022-10-31T00:37:11;17.43;;;4.77;;
50821;SDS011;36794;51.212;6.980;2022-10-31T00:39:37;16.37;;;5.33;;
50821;SDS011;36794;51.212;6.980;2022-10-31T00:42:03;11.00;;;4.87;;
50821;SDS011;36794;51.212;6.980;2022-10-31T00:44:28;19.57;;;4.80;;
50821;SDS011;36794;51.212;6.980;2022-10-31T00:46:54;15.30;;;4.80;;
50821;SDS011;36794;51.212;6.980;2022-10-31T00:49:20;18.83;;;5.43;;
50821;SDS011;36794;51.212;6.980;2022-10-31T00:51:46;9.80;;;4.70;;
50821;SDS011;36794;51.212;6.980;2022-10-31T00:54:12;16.63;;;5.60;;
50821;SDS011;36794;51.212;6.980;2022-10-31T00:56:38;18.13;;;6.10;;
50821;SDS011;36794;51.212;6.980;2022-10-31T00:59:04;12.73;;;5.30;;
50821;SDS011;36794;51.212;6.980;2022-10-31T01:01:30;11.43;;;5.53;;
50821;SDS011;36794;51.212;6.980;2022-10-31T01:03:56;25.90;;;5.30;;
50821;SDS011;36794;51.212;6.980;2022-10-31T01:06:22;19.47;;;5.57;;
50821;SDS011;36794;51.212;6.980;2022-10-31T01:08:48;14.30;;;5.87;;
50821;SDS011;36794;51.212;6.980;2022-10-31T01:11:19;14.27;;;5.80;;
50821;SDS011;36794;51.212;6.980;2022-10-31T01:13:45;13.33;;;5.37;;
50821;SDS011;36794;51.212;6.980;2022-10-31T01:16:13;15.50;;;4.93;;
50821;SDS011;36794;51.212;6.980;2022-10-31T01:18:39;12.17;;;5.13;;
50821;SDS011;36794;51.212;6.980;2022-10-31T01:21:16;12.53;;;5.37;;
50821;SDS011;36794;51.212;6.980;2022-10-31T01:23:42;13.33;;;5.60;;
50821;SDS011;36794;51.212;6.980;2022-10-31T01:26:09;17.10;;;5.77;;
50821;SDS011;36794;51.212;6.980;2022-10-31T01:28:36;13.77;;;5.70;;
50821;SDS011;36794;51.212;6.980;2022-10-31T01:31:03;12.20;;;5.57;;
50821;SDS011;36794;51.212;6.980;2022-10-31T01:33:30;10.83;;;4.80;;
50821;SDS011;36794;51.212;6.980;2022-10-31T01:35:56;12.30;;;6.17;;
50821;SDS011;36794;51.212;6.980;2022-10-31T01:38:22;13.07;;;5.40;;
50821;SDS011;36794;51.212;6.980;2022-10-31T01:40:48;19.17;;;5.20;;
50821;SDS011;36794;51.212;6.980;2022-10-31T01:43:14;15.53;;;5.47;;
50821;SDS011;36794;51.212;6.980;2022-10-31T01:45:41;12.10;;;5.10;;
50821;SDS011;36794;51.212;6.980;2022-10-31T01:48:15;14.20;;;4.77;;
50821;SDS011;36794;51.212;6.980;2022-10-31T01:50:42;9.65;;;3.95;;
50821;SDS011;36794;51.212;6.980;2022-10-31T01:53:10;20.13;;;5.17;;
50821;SDS011;36794;51.212;6.980;2022-10-31T01:55:41;11.83;;;4.77;;
50821;SDS011;36794;51.212;6.980;2022-10-31T01:58:10;20.07;;;5.60;;
50821;SDS011;36794;51.212;6.980;2022-10-31T02:00:36;14.10;;;5.17;;
50821;SDS011;36794;51.212;6.980;2022-10-31T02:03:02;14.10;;;6.00;;
50821;SDS011;36794;51.212;6.980;2022-10-31T02:05:29;12.23;;;5.30;;
50821;SDS011;36794;51.212;6.980;2022-10-31T02:07:56;14.77;;;5.33;;
50821;SDS011;36794;51.212;6.980;2022-10-31T02:10:23;17.50;;;5.10;;
50821;SDS011;36794;51.212;6.980;2022-10-31T02:12:51;20.73;;;5.97;;
50821;SDS011;36794;51.212;6.980;2022-10-31T02:15:17;18.50;;;6.03;;
50821;SDS011;36794;51.212;6.980;2022-10-31T02:17:43;15.47;;;5.27;;
50821;SDS011;36794;51.212;6.980;2022-10-31T02:25:19;10.77;;;5.47;;
50821;SDS011;36794;51.212;6.980;2022-10-31T02:28:05;13.47;;;5.00;;
50821;SDS011;36794;51.212;6.980;2022-10-31T02:30:52;15.73;;;5.40;;
50821;SDS011;36794;51.212;6.980;2022-10-31T02:33:25;16.53;;;5.30;;
50821;SDS011;36794;51.212;6.980;2022-10-31T02:41:10;13.13;;;5.90;;
50821;SDS011;36794;51.212;6.980;2022-10-31T02:43:47;14.67;;;5.80;;
50821;SDS011;36794;51.212;6.980;2022-10-31T02:46:19;14.37;;;5.03;;
50821;SDS011;36794;51.212;6.980;2022-10-31T02:48:47;14.50;;;5.30;;
50821;SDS011;36794;51.212;6.980;2022-10-31T02:51:14;19.73;;;6.10;;
50821;SDS011;36794;51.212;6.980;2022-10-31T02:53:40;14.17;;;5.70;;
50821;SDS011;36794;51.212;6.980;2022-10-31T02:56:16;16.40;;;5.30;;
50821;SDS011;36794;51.212;6.980;2022-10-31T02:58:44;14.30;;;5.33;;
50821;SDS011;36794;51.212;6.980;2022-10-31T03:01:16;20.53;;;5.60;;
50821;SDS011;36794;51.212;6.980;2022-10-31T03:06:33;14.75;;;5.03;;
50821;SDS011;36794;51.212;6.980;2022-10-31T03:09:03;11.83;;;4.97;;
50821;SDS011;36794;51.212;6.980;2022-10-31T03:11:34;14.23;;;5.30;;
50821;SDS011;36794;51.212;6.980;2022-10-31T03:16:31;20.77;;;5.57;;
50821;SDS011;36794;51.212;6.980;2022-10-31T03:19:12;17.87;;;5.40;;
50821;SDS011;36794;51.212;6.980;2022-10-31T03:21:50;11.80;;;5.33;;
50821;SDS011;36794;51.212;6.980;2022-10-31T03:24:19;23.57;;;5.80;;
50821;SDS011;36794;51.212;6.980;2022-10-31T03:26:51;15.73;;;5.60;;
50821;SDS011;36794;51.212;6.980;2022-10-31T03:29:18;18.07;;;6.10;;
50821;SDS011;36794;51.212;6.980;2022-10-31T03:31:53;18.33;;;6.13;;
50821;SDS011;36794;51.212;6.980;2022-10-31T03:34:21;14.33;;;5.73;;
50821;SDS011;36794;51.212;6.980;2022-10-31T03:36:48;13.77;;;5.77;;
50821;SDS011;36794;51.212;6.980;2022-10-31T03:39:15;16.97;;;5.70;;
50821;SDS011;36794;51.212;6.980;2022-10-31T03:41:44;18.33;;;5.57;;
50821;SDS011;36794;51.212;6.980;2022-10-31T03:44:12;17.57;;;5.60;;
50821;SDS011;36794;51.212;6.980;2022-10-31T03:46:40;21.00;;;6.33;;
50821;SDS011;36794;51.212;6.980;2022-10-31T03:49:07;17.57;;;6.27;;
50821;SDS011;36794;51.212;6.980;2022-10-31T03:54:04;13.77;;;6.07;;
50821;SDS011;36794;51.212;6.980;2022-10-31T03:56:48;15.40;;;5.67;;
50821;SDS011;36794;51.212;6.980;2022-10-31T04:02:02;15.25;;;5.63;;
50821;SDS011;36794;51.212;6.980;2022-10-31T04:04:31;13.73;;;6.03;;
50821;SDS011;36794;51.212;6.980;2022-10-31T04:06:58;14.37;;;6.10;;
50821;SDS011;36794;51.212;6.980;2022-10-31T04:09:25;13.27;;;5.63;;
50821;SDS011;36794;51.212;6.980;2022-10-31T04:11:53;11.70;;;5.83;;
50821;SDS011;36794;51.212;6.980;2022-10-31T04:14:20;18.67;;;6.40;;
50821;SDS011;36794;51.212;6.980;2022-10-31T04:16:47;22.53;;;5.70;;
50821;SDS011;36794;51.212;6.980;2022-10-31T04:19:13;21.53;;;6.63;;
50821;SDS011;36794;51.212;6.980;2022-10-31T04:21:40;19.50;;;6.20;;
50821;SDS011;36794;51.212;6.980;2022-10-31T04:24:08;10.30;;;5.70;;
50821;SDS011;36794;51.212;6.980;2022-10-31T04:26:34;16.93;;;6.13;;
50821;SDS011;36794;51.212;6.980;2022-10-31T04:29:00;16.93;;;7.20;;
50821;SDS011;36794;51.212;6.980;2022-10-31T04:31:26;14.23;;;7.03;;
50821;SDS011;36794;51.212;6.980;2022-10-31T04:33:52;16.90;;;7.80;;
50821;SDS011;36794;51.212;6.980;2022-10-31T04:36:18;17.87;;;6.90;;
50821;SDS011;36794;51.212;6.980;2022-10-31T04:38:44;19.20;;;6.43;;
50821;SDS011;36794;51.212;6.980;2022-10-31T04:41:10;18.40;;;6.90;;
50821;SDS011;36794;51.212;6.980;2022-10-31T04:43:36;13.00;;;6.20;;
50821;SDS011;36794;51.212;6.980;2022-10-31T04:46:02;20.03;;;7.20;;
50821;SDS011;36794;51.212;6.980;2022-10-31T04:48:29;16.80;;;6.70;;
50821;SDS011;36794;51.212;6.980;2022-10-31T04:50:58;14.50;;;6.27;;
50821;SDS011;36794;51.212;6.980;2022-10-31T04:53:25;20.40;;;6.70;;
50821;SDS011;36794;51.212;6.980;2022-10-31T04:55:51;14.20;;;7.67;;
50821;SDS011;36794;51.212;6.980;2022-10-31T04:58:17;15.03;;;7.30;;
50821;SDS011;36794;51.212;6.980;2022-10-31T05:00:42;14.07;;;7.37;;
50821;SDS011;36794;51.212;6.980;2022-10-31T05:03:08;17.00;;;7.70;;
50821;SDS011;36794;51.212;6.980;2022-10-31T05:05:34;15.87;;;7.43;;
50821;SDS011;36794;51.212;6.980;2022-10-31T05:08:00;17.57;;;7.67;;
50821;SDS011;36794;51.212;6.980;2022-10-31T05:10:28;17.80;;;7.43;;
50821;SDS011;36794;51.212;6.980;2022-10-31T05:12:55;15.27;;;7.10;;
50821;SDS011;36794;51.212;6.980;2022-10-31T05:15:22;15.87;;;7.20;;
50821;SDS011;36794;51.212;6.980;2022-10-31T05:17:48;16.60;;;7.30;;
50821;SDS011;36794;51.212;6.980;2022-10-31T05:20:15;20.47;;;7.13;;
50821;SDS011;36794;51.212;6.980;2022-10-31T05:22:45;16.10;;;6.67;;
50821;SDS011;36794;51.212;6.980;2022-10-31T05:27:45;23.42;;;8.70;;
50821;SDS011;36794;51.212;6.980;2022-10-31T05:30:13;22.23;;;8.07;;
50821;SDS011;36794;51.212;6.980;2022-10-31T05:58:05;18.93;;;8.20;;
50821;SDS011;36794;51.212;6.980;2022-10-31T06:00:31;17.87;;;8.13;;
50821;SDS011;36794;51.212;6.980;2022-10-31T06:03:00;17.73;;;7.93;;
50821;SDS011;36794;51.212;6.980;2022-10-31T06:05:27;17.60;;;7.33;;
50821;SDS011;36794;51.212;6.980;2022-10-31T06:07:53;15.93;;;7.53;;
50821;SDS011;36794;51.212;6.980;2022-10-31T06:10:19;18.03;;;7.23;;
50821;SDS011;36794;51.212;6.980;2022-10-31T06:12:46;20.20;;;7.07;;
50821;SDS011;36794;51.212;6.980;2022-10-31T06:15:12;14.57;;;7.50;;
50821;SDS011;36794;51.212;6.980;2022-10-31T06:17:38;15.93;;;7.43;;
50821;SDS011;36794;51.212;6.980;2022-10-31T06:20:04;19.17;;;7.17;;
50821;SDS011;36794;51.212;6.980;2022-10-31T06:22:31;17.40;;;8.17;;
50821;SDS011;36794;51.212;6.980;2022-10-31T06:24:57;19.10;;;7.23;;
50821;SDS011;36794;51.212;6.980;2022-10-31T06:27:23;14.20;;;7.20;;
50821;SDS011;36794;51.212;6.980;2022-10-31T06:29:49;15.73;;;7.40;;
50821;SDS011;36794;51.212;6.980;2022-10-31T06:32:15;14.67;;;7.00;;
50821;SDS011;36794;51.212;6.980;2022-10-31T06:34:41;16.90;;;7.60;;
50821;SDS011;36794;51.212;6.980;2022-10-31T06:37:08;16.77;;;7.40;;
50821;SDS011;36794;51.212;6.980;2022-10-31T06:39:34;16.80;;;7.90;;
50821;SDS011;36794;51.212;6.980;2022-10-31T06:42:00;16.23;;;7.00;;
50821;SDS011;36794;51.212;6.980;2022-10-31T06:44:26;18.47;;;7.93;;
50821;SDS011;36794;51.212;6.980;2022-10-31T06:46:52;18.93;;;8.03;;
50821;SDS011;36794;51.212;6.980;2022-10-31T06:49:18;16.97;;;8.30;;
50821;SDS011;36794;51.212;6.980;2022-10-31T06:51:46;14.97;;;7.80;;
50821;SDS011;36794;51.212;6.980;2022-10-31T06:54:12;16.67;;;7.63;;
50821;SDS011;36794;51.212;6.980;2022-10-31T06:56:38;16.67;;;8.00;;
50821;SDS011;36794;51.212;6.980;2022-10-31T06:59:04;12.93;;;7.67;;
50821;SDS011;36794;51.212;6.980;2022-10-31T07:01:31;23.90;;;8.17;;
50821;SDS011;36794;51.212;6.980;2022-10-31T07:03:56;16.57;;;7.80;;
50821;SDS011;36794;51.212;6.980;2022-10-31T07:06:22;16.97;;;8.27;;
50821;SDS011;36794;51.212;6.980;2022-10-31T07:08:48;16.20;;;8.73;;
50821;SDS011;36794;51.212;6.980;2022-10-31T07:11:14;23.00;;;8.20;;
50821;SDS011;36794;51.212;6.980;2022-10-31T07:13:40;18.17;;;8.63;;
50821;SDS011;36794;51.212;6.980;2022-10-31T07:16:06;24.17;;;8.53;;
50821;SDS011;36794;51.212;6.980;2022-10-31T07:18:32;13.97;;;8.10;;
50821;SDS011;36794;51.212;6.980;2022-10-31T07:20:58;20.63;;;7.90;;
50821;SDS011;36794;51.212;6.980;2022-10-31T07:23:24;17.40;;;8.37;;
50821;SDS011;36794;51.212;6.980;2022-10-31T07:25:54;19.13;;;7.87;;
50821;SDS011;36794;51.212;6.980;2022-10-31T07:28:20;20.20;;;8.37;;
50821;SDS011;36794;51.212;6.980;2022-10-31T07:30:49;15.43;;;7.37;;
50821;SDS011;36794;51.212;6.980;2022-10-31T07:33:15;20.03;;;8.43;;
50821;SDS011;36794;51.212;6.980;2022-10-31T07:35:41;20.10;;;8.00;;
50821;SDS011;36794;51.212;6.980;2022-10-31T07:38:11;16.13;;;8.20;;
50821;SDS011;36794;51.212;6.980;2022-10-31T07:40:37;13.93;;;8.37;;
50821;SDS011;36794;51.212;6.980;2022-10-31T07:43:03;21.23;;;8.13;;
50821;SDS011;36794;51.212;6.980;2022-10-31T07:45:29;16.63;;;8.67;;
50821;SDS011;36794;51.212;6.980;2022-10-31T07:47:55;18.27;;;8.63;;
50821;SDS011;36794;51.212;6.980;2022-10-31T07:50:25;15.30;;;8.73;;
50821;SDS011;36794;51.212;6.980;2022-10-31T07:53:13;15.93;;;7.87;;
50821;SDS011;36794;51.212;6.980;2022-10-31T07:55:37;21.20;;;8.77;;
50821;SDS011;36794;51.212;6.980;2022-10-31T07:58:08;18.53;;;8.83;;
50821;SDS011;36794;51.212;6.980;2022-10-31T08:00:35;24.43;;;9.00;;
50821;SDS011;36794;51.212;6.980;2022-10-31T08:03:05;21.33;;;9.00;;
50821;SDS011;36794;51.212;6.980;2022-10-31T08:05:31;17.73;;;8.53;;
50821;SDS011;36794;51.212;6.980;2022-10-31T08:07:57;18.60;;;8.83;;
50821;SDS011;36794;51.212;6.980;2022-10-31T08:10:24;21.63;;;10.23;;
50821;SDS011;36794;51.212;6.980;2022-10-31T08:12:56;23.30;;;10.50;;
50821;SDS011;36794;51.212;6.980;2022-10-31T08:15:23;20.77;;;9.60;;
50821;SDS011;36794;51.212;6.980;2022-10-31T08:17:49;23.57;;;9.10;;
50821;SDS011;36794;51.212;6.980;2022-10-31T08:20:14;23.33;;;10.43;;
50821;SDS011;36794;51.212;6.980;2022-10-31T08:22:40;26.20;;;11.53;;
50821;SDS011;36794;51.212;6.980;2022-10-31T08:25:06;32.93;;;11.50;;
50821;SDS011;36794;51.212;6.980;2022-10-31T08:27:32;26.77;;;10.07;;
50821;SDS011;36794;51.212;6.980;2022-10-31T08:29:58;23.57;;;9.97;;
50821;SDS011;36794;51.212;6.980;2022-10-31T08:32:24;29.30;;;11.37;;
50821;SDS011;36794;51.212;6.980;2022-10-31T08:34:50;25.73;;;11.67;;
50821;SDS011;36794;51.212;6.980;2022-10-31T08:37:16;28.27;;;10.50;;
50821;SDS011;36794;51.212;6.980;2022-10-31T08:39:45;28.97;;;11.63;;
50821;SDS011;36794;51.212;6.980;2022-10-31T08:42:11;31.20;;;11.37;;
50821;SDS011;36794;51.212;6.980;2022-10-31T08:44:37;30.67;;;11.13;;
50821;SDS011;36794;51.212;6.980;2022-10-31T08:47:03;24.80;;;10.07;;
50821;SDS011;36794;51.212;6.980;2022-10-31T08:49:30;23.30;;;11.30;;
50821;SDS011;36794;51.212;6.980;2022-10-31T08:51:56;28.80;;;11.87;;
50821;SDS011;36794;51.212;6.980;2022-10-31T08:54:22;29.30;;;11.23;;
50821;SDS011;36794;51.212;6.980;2022-10-31T08:56:48;22.52;;;12.00;;
50821;SDS011;36794;51.212;6.980;2022-10-31T08:59:18;28.77;;;13.63;;
50821;SDS011;36794;51.212;6.980;2022-10-31T09:01:44;32.00;;;14.48;;
50821;SDS011;36794;51.212;6.980;2022-10-31T09:04:10;36.22;;;14.52;;
50821;SDS011;36794;51.212;6.980;2022-10-31T09:06:36;33.35;;;14.02;;
50821;SDS011;36794;51.212;6.980;2022-10-31T09:09:02;27.92;;;14.30;;
50821;SDS011;36794;51.212;6.980;2022-10-31T09:11:29;32.80;;;14.27;;
50821;SDS011;36794;51.212;6.980;2022-10-31T09:13:55;31.80;;;13.82;;
50821;SDS011;36794;51.212;6.980;2022-10-31T09:16:21;29.40;;;14.70;;
50821;SDS011;36794;51.212;6.980;2022-10-31T09:18:47;30.73;;;13.88;;
50821;SDS011;36794;51.212;6.980;2022-10-31T09:21:13;34.97;;;13.73;;
50821;SDS011;36794;51.212;6.980;2022-10-31T09:23:39;33.22;;;13.88;;
50821;SDS011;36794;51.212;6.980;2022-10-31T09:26:05;36.20;;;14.30;;
50821;SDS011;36794;51.212;6.980;2022-10-31T09:28:31;36.30;;;12.75;;
50821;SDS011;36794;51.212;6.980;2022-10-31T09:30:57;28.40;;;13.25;;
50821;SDS011;36794;51.212;6.980;2022-10-31T09:33:23;25.67;;;12.88;;
50821;SDS011;36794;51.212;6.980;2022-10-31T09:35:49;27.67;;;12.80;;
50821;SDS011;36794;51.212;6.980;2022-10-31T09:38:16;27.15;;;12.68;;
50821;SDS011;36794;51.212;6.980;2022-10-31T09:41:06;35.58;;;13.23;;
50821;SDS011;36794;51.212;6.980;2022-10-31T09:43:36;35.47;;;13.23;;
50821;SDS011;36794;51.212;6.980;2022-10-31T09:46:16;29.42;;;13.48;;
50821;SDS011;36794;51.212;6.980;2022-10-31T09:51:11;42.60;;;14.68;;
50821;SDS011;36794;51.212;6.980;2022-10-31T09:53:43;26.70;;;13.52;;
50821;SDS011;36794;51.212;6.980;2022-10-31T09:56:12;33.47;;;15.00;;
50821;SDS011;36794;51.212;6.980;2022-10-31T09:58:43;31.35;;;14.75;;
50821;SDS011;36794;51.212;6.980;2022-10-31T10:01:45;29.38;;;13.68;;
50821;SDS011;36794;51.212;6.980;2022-10-31T10:04:05;32.22;;;14.30;;
50821;SDS011;36794;51.212;6.980;2022-10-31T10:06:35;32.40;;;13.55;;
50821;SDS011;36794;51.212;6.980;2022-10-31T10:09:01;31.55;;;14.15;;
50821;SDS011;36794;51.212;6.980;2022-10-31T10:11:32;33.72;;;14.02;;
50821;SDS011;36794;51.212;6.980;2022-10-31T10:29:28;22.10;;;11.27;;
50821;SDS011;36794;51.212;6.980;2022-10-31T10:31:57;31.15;;;11.00;;
50821;SDS011;36794;51.212;6.980;2022-10-31T10:34:27;23.90;;;10.68;;
50821;SDS011;36794;51.212;6.980;2022-10-31T10:36:57;23.02;;;10.10;;
50821;SDS011;36794;51.212;6.980;2022-10-31T10:39:29;23.30;;;9.35;;
50821;SDS011;36794;51.212;6.980;2022-10-31T10:41:57;30.52;;;9.13;;
50821;SDS011;36794;51.212;6.980;2022-10-31T10:44:48;48.05;;;9.65;;
50821;SDS011;36794;51.212;6.980;2022-10-31T10:47:44;26.48;;;8.15;;
50821;SDS011;36794;51.212;6.980;2022-10-31T10:50:20;22.02;;;7.30;;
50821;SDS011;36794;51.212;6.980;2022-10-31T10:58:03;15.52;;;6.90;;
50821;SDS011;36794;51.212;6.980;2022-10-31T11:00:30;17.80;;;7.18;;
50821;SDS011;36794;51.212;6.980;2022-10-31T11:02:56;23.58;;;7.30;;
50821;SDS011;36794;51.212;6.980;2022-10-31T11:05:24;20.90;;;6.57;;
50821;SDS011;36794;51.212;6.980;2022-10-31T11:07:51;17.33;;;6.45;;
50821;SDS011;36794;51.212;6.980;2022-10-31T11:10:17;16.33;;;5.72;;
50821;SDS011;36794;51.212;6.980;2022-10-31T11:12:44;15.65;;;5.65;;
50821;SDS011;36794;51.212;6.980;2022-10-31T11:15:18;13.82;;;5.15;;
50821;SDS011;36794;51.212;6.980;2022-10-31T11:17:47;19.08;;;6.03;;
50821;SDS011;36794;51.212;6.980;2022-10-31T11:22:40;16.13;;;5.13;;
50821;SDS011;36794;51.212;6.980;2022-10-31T11:25:21;13.15;;;5.25;;
50821;SDS011;36794;51.212;6.980;2022-10-31T11:27:58;14.25;;;4.90;;
50821;SDS011;36794;51.212;6.980;2022-10-31T11:30:24;16.15;;;4.57;;
50821;SDS011;36794;51.212;6.980;2022-10-31T11:32:50;14.60;;;4.13;;
50821;SDS011;36794;51.212;6.980;2022-10-31T11:35:17;21.08;;;4.38;;
50821;SDS011;36794;51.212;6.980;2022-10-31T11:37:44;16.08;;;3.97;;
50821;SDS011;36794;51.212;6.980;2022-10-31T11:40:14;11.75;;;3.97;;
50821;SDS011;36794;51.212;6.980;2022-10-31T11:42:41;12.18;;;4.13;;
50821;SDS011;36794;51.212;6.980;2022-10-31T11:47:41;13.32;;;3.60;;
50821;SDS011;36794;51.212;6.980;2022-10-31T11:50:09;13.25;;;4.80;;
50821;SDS011;36794;51.212;6.980;2022-10-31T11:52:36;17.08;;;4.18;;
50821;SDS011;36794;51.212;6.980;2022-10-31T11:59:59;18.98;;;4.05;;
50821;SDS011;36794;51.212;6.980;2022-10-31T12:02:25;16.38;;;4.68;;
50821;SDS011;36794;51.212;6.980;2022-10-31T12:05:00;21.92;;;5.63;;
50821;SDS011;36794;51.212;6.980;2022-10-31T12:07:26;19.70;;;4.90;;
50821;SDS011;36794;51.212;6.980;2022-10-31T12:09:52;15.95;;;4.00;;
50821;SDS011;36794;51.212;6.980;2022-10-31T12:15:03;17.35;;;4.00;;
50821;SDS011;36794;51.212;6.980;2022-10-31T12:17:42;18.23;;;4.05;;
50821;SDS011;36794;51.212;6.980;2022-10-31T12:20:20;15.18;;;3.78;;
50821;SDS011;36794;51.212;6.980;2022-10-31T12:23:05;15.07;;;4.65;;
50821;SDS011;36794;51.212;6.980;2022-10-31T12:28:08;12.88;;;3.80;;
50821;SDS011;36794;51.212;6.980;2022-10-31T12:41:08;15.15;;;3.45;;
50821;SDS011;36794;51.212;6.980;2022-10-31T12:46:14;15.70;;;3.40;;
50821;SDS011;36794;51.212;6.980;2022-10-31T12:56:24;15.15;;;3.40;;
50821;SDS011;36794;51.212;6.980;2022-10-31T13:01:30;12.43;;;3.15;;
50821;SDS011;36794;51.212;6.980;2022-10-31T13:04:03;14.15;;;3.88;;
50821;SDS011;36794;51.212;6.980;2022-10-31T13:07:04;13.48;;;4.00;;
50821;SDS011;36794;51.212;6.980;2022-10-31T13:09:25;11.77;;;3.58;;
50821;SDS011;36794;51.212;6.980;2022-10-31T13:11:55;11.25;;;3.83;;
50821;SDS011;36794;51.212;6.980;2022-10-31T13:14:36;15.27;;;3.75;;
50821;SDS011;36794;51.212;6.980;2022-10-31T13:17:04;17.15;;;3.67;;
50821;SDS011;36794;51.212;6.980;2022-10-31T13:22:02;14.15;;;3.47;;
50821;SDS011;36794;51.212;6.980;2022-10-31T13:24:37;10.88;;;3.40;;
50821;SDS011;36794;51.212;6.980;2022-10-31T13:27:11;13.50;;;3.00;;
50821;SDS011;36794;51.212;6.980;2022-10-31T13:29:40;11.48;;;3.80;;
50821;SDS011;36794;51.212;6.980;2022-10-31T13:32:08;11.95;;;3.67;;
50821;SDS011;36794;51.212;6.980;2022-10-31T13:34:36;16.50;;;3.45;;
50821;SDS011;36794;51.212;6.980;2022-10-31T13:42:20;17.30;;;3.78;;
50821;SDS011;36794;51.212;6.980;2022-10-31T13:44:49;16.02;;;4.15;;
50821;SDS011;36794;51.212;6.980;2022-10-31T13:47:33;19.00;;;3.80;;
50821;SDS011;36794;51.212;6.980;2022-10-31T13:50:03;16.25;;;4.28;;
50821;SDS011;36794;51.212;6.980;2022-10-31T13:52:29;14.48;;;3.63;;
50821;SDS011;36794;51.212;6.980;2022-10-31T13:54:55;11.82;;;3.60;;
50821;SDS011;36794;51.212;6.980;2022-10-31T13:57:31;17.55;;;3.65;;
50821;SDS011;36794;51.212;6.980;2022-10-31T13:59:59;16.65;;;3.50;;
50821;SDS011;36794;51.212;6.980;2022-10-31T14:02:27;12.07;;;3.45;;
50821;SDS011;36794;51.212;6.980;2022-10-31T14:04:56;18.30;;;4.10;;
50821;SDS011;36794;51.212;6.980;2022-10-31T14:07:22;17.33;;;3.38;;
50821;SDS011;36794;51.212;6.980;2022-10-31T14:12:26;14.65;;;3.58;;
50821;SDS011;36794;51.212;6.980;2022-10-31T14:14:55;19.83;;;3.88;;
50821;SDS011;36794;51.212;6.980;2022-10-31T14:17:25;13.60;;;3.60;;
50821;SDS011;36794;51.212;6.980;2022-10-31T14:19:59;15.68;;;3.88;;
50821;SDS011;36794;51.212;6.980;2022-10-31T14:22:29;16.65;;;3.53;;
50821;SDS011;36794;51.212;6.980;2022-10-31T14:24:55;12.85;;;3.63;;
50821;SDS011;36794;51.212;6.980;2022-10-31T14:29:53;15.80;;;4.30;;
50821;SDS011;36794;51.212;6.980;2022-10-31T14:32:23;17.60;;;4.03;;
50821;SDS011;36794;51.212;6.980;2022-10-31T14:52:49;12.48;;;3.08;;
50821;SDS011;36794;51.212;6.980;2022-10-31T14:55:15;17.73;;;3.58;;
50821;SDS011;36794;51.212;6.980;2022-10-31T14:57:44;10.25;;;3.10;;
50821;SDS011;36794;51.212;6.980;2022-10-31T15:00:15;13.77;;;3.72;;
50821;SDS011;36794;51.212;6.980;2022-10-31T15:02:50;18.08;;;3.38;;
50821;SDS011;36794;51.212;6.980;2022-10-31T15:05:21;12.27;;;3.25;;
50821;SDS011;36794;51.212;6.980;2022-10-31T15:07:54;12.43;;;3.20;;
50821;SDS011;36794;51.212;6.980;2022-10-31T15:10:30;15.25;;;3.67;;
50821;SDS011;36794;51.212;6.980;2022-10-31T15:13:19;18.17;;;2.70;;
50821;SDS011;36794;51.212;6.980;2022-10-31T15:15:46;15.52;;;2.97;;
50821;SDS011;36794;51.212;6.980;2022-10-31T15:18:13;17.80;;;3.60;;
50821;SDS011;36794;51.212;6.980;2022-10-31T15:20:44;11.07;;;3.22;;
50821;SDS011;36794;51.212;6.980;2022-10-31T15:23:16;15.02;;;2.92;;
50821;SDS011;36794;51.212;6.980;2022-10-31T15:25:42;11.13;;;3.00;;
50821;SDS011;36794;51.212;6.980;2022-10-31T15:28:15;15.60;;;3.13;;
50821;SDS011;36794;51.212;6.980;2022-10-31T15:30:49;18.83;;;3.65;;
50821;SDS011;36794;51.212;6.980;2022-10-31T15:33:26;12.82;;;3.13;;
50821;SDS011;36794;51.212;6.980;2022-10-31T15:35:56;11.90;;;2.58;;
50821;SDS011;36794;51.212;6.980;2022-10-31T15:38:22;13.70;;;2.90;;
50821;SDS011;36794;51.212;6.980;2022-10-31T15:41:01;14.32;;;3.47;;
50821;SDS011;36794;51.212;6.980;2022-10-31T15:43:31;14.25;;;2.63;;
50821;SDS011;36794;51.212;6.980;2022-10-31T15:45:58;15.35;;;3.25;;
50821;SDS011;36794;51.212;6.980;2022-10-31T15:48:24;14.73;;;2.70;;
50821;SDS011;36794;51.212;6.980;2022-10-31T15:50:52;14.60;;;2.97;;
50821;SDS011;36794;51.212;6.980;2022-10-31T15:54:04;13.20;;;2.63;;
50821;SDS011;36794;51.212;6.980;2022-10-31T15:56:05;19.35;;;3.75;;
50821;SDS011;36794;51.212;6.980;2022-10-31T15:58:46;21.13;;;3.20;;
50821;SDS011;36794;51.212;6.980;2022-10-31T16:01:20;15.68;;;3.72;;
50821;SDS011;36794;51.212;6.980;2022-10-31T16:06:33;12.63;;;3.10;;
50821;SDS011;36794;51.212;6.980;2022-10-31T16:08:59;11.60;;;3.15;;
50821;SDS011;36794;51.212;6.980;2022-10-31T16:11:33;14.38;;;3.58;;
50821;SDS011;36794;51.212;6.980;2022-10-31T16:14:07;11.48;;;3.00;;
50821;SDS011;36794;51.212;6.980;2022-10-31T16:16:42;22.77;;;3.75;;
50821;SDS011;36794;51.212;6.980;2022-10-31T16:19:16;16.13;;;2.92;;
50821;SDS011;36794;51.212;6.980;2022-10-31T16:21:43;14.07;;;3.25;;
50821;SDS011;36794;51.212;6.980;2022-10-31T16:24:28;11.88;;;3.42;;
50821;SDS011;36794;51.212;6.980;2022-10-31T16:27:01;13.73;;;3.22;;
50821;SDS011;36794;51.212;6.980;2022-10-31T16:29:41;16.03;;;3.23;;
50821;SDS011;36794;51.212;6.980;2022-10-31T16:37:38;14.18;;;2.83;;
50821;SDS011;36794;51.212;6.980;2022-10-31T16:40:04;14.35;;;2.85;;
50821;SDS011;36794;51.212;6.980;2022-10-31T16:42:30;15.00;;;3.30;;
50821;SDS011;36794;51.212;6.980;2022-10-31T16:44:56;12.40;;;3.10;;
50821;SDS011;36794;51.212;6.980;2022-10-31T16:47:22;12.43;;;2.95;;
50821;SDS011;36794;51.212;6.980;2022-10-31T16:49:48;13.50;;;3.47;;
50821;SDS011;36794;51.212;6.980;2022-10-31T16:52:17;14.07;;;2.92;;
50821;SDS011;36794;51.212;6.980;2022-10-31T16:54:43;15.45;;;2.70;;
50821;SDS011;36794;51.212;6.980;2022-10-31T16:57:12;13.18;;;3.30;;
50821;SDS011;36794;51.212;6.980;2022-10-31T16:59:39;15.55;;;3.80;;
50821;SDS011;36794;51.212;6.980;2022-10-31T17:02:06;16.23;;;3.63;;
50821;SDS011;36794;51.212;6.980;2022-10-31T17:04:35;18.95;;;2.78;;
50821;SDS011;36794;51.212;6.980;2022-10-31T17:07:01;12.50;;;3.45;;
50821;SDS011;36794;51.212;6.980;2022-10-31T17:09:27;13.73;;;2.60;;
50821;SDS011;36794;51.212;6.980;2022-10-31T17:11:53;13.10;;;3.10;;